sensor_id;sensor_type;location;lat;lon;timestamp;temperature;humidity
74934;DHT22;63499;53.232;7.492;2023-03-08T00:01:10;0.10;99.90
74934;DHT22;63499;53.232;7.492;2023-03-08T00:03:36;0.10;99.90
74934;DHT22;63499;53.232;7.492;2023-03-08T00:06:04;0.10;99.90
74934;DHT22;63499;53.232;7.492;2023-03-08T00:08:30;0.10;99.90
74934;DHT22;63499;53.232;7.492;2023-03-08T00:10:56;0.20;99.90
74934;DHT22;63499;53.232;7.492;2023-03-08T00:13:22;0.20;99.90
74934;DHT22;63499;53.232;7.492;2023-03-08T00:15:48;0.20;99.90
74934;DHT22;63499;53.232;7.492;2023-03-08T00:18:14;0.20;99.90
74934;DHT22;63499;53.232;7.492;2023-03-08T00:20:40;0.20;99.90
74934;DHT22;63499;53.232;7.492;2023-03-08T00:23:07;0.20;99.90
74934;DHT22;63499;53.232;7.492;2023-03-08T00:25:33;0.20;99.90
74934;DHT22;63499;53.232;7.492;2023-03-08T00:27:59;0.20;99.90
74934;DHT22;63499;53.232;7.492;2023-03-08T00:30:29;0.20;99.90
74934;DHT22;63499;53.232;7.492;2023-03-08T00:32:55;0.20;99.90
74934;DHT22;63499;53.232;7.492;2023-03-08T00:35:21;0.30;99.90
74934;DHT22;63499;53.232;7.492;2023-03-08T00:37:47;0.20;99.90
74934;DHT22;63499;53.232;7.492;2023-03-08T00:40:15;0.20;99.90
74934;DHT22;63499;53.232;7.492;2023-03-08T00:42:41;0.20;99.90
74934;DHT22;63499;53.232;7.492;2023-03-08T00:45:07;0.20;99.90
74934;DHT22;63499;53.232;7.492;2023-03-08T00:47:34;0.20;99.90
74934;DHT22;63499;53.232;7.492;2023-03-08T00:50:00;0.20;99.90
74934;DHT22;63499;53.232;7.492;2023-03-08T00:52:29;0.10;99.90
74934;DHT22;63499;53.232;7.492;2023-03-08T00:54:55;0.10;99.90
74934;DHT22;63499;53.232;7.492;2023-03-08T00:57:22;0.10;99.90
74934;DHT22;63499;53.232;7.492;2023-03-08T00:59:48;0.00;99.90
74934;DHT22;63499;53.232;7.492;2023-03-08T01:02:14;0.00;99.90
74934;DHT22;63499;53.232;7.492;2023-03-08T01:04:40;-0.10;99.90
74934;DHT22;63499;53.232;7.492;2023-03-08T01:07:06;-0.10;99.90
74934;DHT22;63499;53.232;7.492;2023-03-08T01:09:32;-0.10;99.90
74934;DHT22;63499;53.232;7.492;2023-03-08T01:11:59;0.00;99.90
74934;DHT22;63499;53.232;7.492;2023-03-08T01:14:25;-0.10;99.90
74934;DHT22;63499;53.232;7.492;2023-03-08T01:16:51;-0.10;99.90
74934;DHT22;63499;53.232;7.492;2023-03-08T01:19:18;-0.10;99.90
74934;DHT22;63499;53.232;7.492;2023-03-08T01:21:44;-0.20;99.90
74934;DHT22;63499;53.232;7.492;2023-03-08T01:24:10;-0.20;99.90
74934;DHT22;63499;53.232;7.492;2023-03-08T01:26:37;-0.20;99.90
74934;DHT22;63499;53.232;7.492;2023-03-08T01:29:03;-0.20;99.90
74934;DHT22;63499;53.232;7.492;2023-03-08T01:31:29;-0.30;99.90
74934;DHT22;63499;53.232;7.492;2023-03-08T01:33:58;-0.30;99.90
74934;DHT22;63499;53.232;7.492;2023-03-08T01:36:25;-0.30;99.90
74934;DHT22;63499;53.232;7.492;2023-03-08T01:38:54;-0.30;99.90
74934;DHT22;63499;53.232;7.492;2023-03-08T01:41:22;-0.30;99.90
74934;DHT22;63499;53.232;7.492;2023-03-08T01:43:49;-0.40;99.90
74934;DHT22;63499;53.232;7.492;2023-03-08T01:48:51;-0.50;99.90
74934;DHT22;63499;53.232;7.492;2023-03-08T01:51:52;-0.50;99.90
74934;DHT22;63499;53.232;7.492;2023-03-08T01:54:15;-0.50;99.90
74934;DHT22;63499;53.232;7.492;2023-03-08T01:56:42;-0.50;99.90
74934;DHT22;63499;53.232;7.492;2023-03-08T01:59:10;-0.50;99.90
74934;DHT22;63499;53.232;7.492;2023-03-08T02:01:36;-0.50;99.90
74934;DHT22;63499;53.232;7.492;2023-03-08T02:04:06;-0.50;99.90
74934;DHT22;63499;53.232;7.492;2023-03-08T02:06:34;-0.50;99.90
74934;DHT22;63499;53.232;7.492;2023-03-08T02:09:01;-0.60;99.90
74934;DHT22;63499;53.232;7.492;2023-03-08T02:11:33;-0.60;99.90
74934;DHT22;63499;53.232;7.492;2023-03-08T02:14:00;-0.70;99.90
74934;DHT22;63499;53.232;7.492;2023-03-08T02:16:27;-0.70;99.90
74934;DHT22;63499;53.232;7.492;2023-03-08T02:18:57;-0.70;99.90
74934;DHT22;63499;53.232;7.492;2023-03-08T02:21:25;-0.70;99.90
74934;DHT22;63499;53.232;7.492;2023-03-08T02:23:51;-0.70;99.90
74934;DHT22;63499;53.232;7.492;2023-03-08T02:26:18;-0.70;99.90
74934;DHT22;63499;53.232;7.492;2023-03-08T02:28:44;-0.70;99.90
74934;DHT22;63499;53.232;7.492;2023-03-08T02:31:12;-0.70;99.90
74934;DHT22;63499;53.232;7.492;2023-03-08T02:33:38;-0.70;99.90
74934;DHT22;63499;53.232;7.492;2023-03-08T02:36:04;-0.70;99.90
74934;DHT22;63499;53.232;7.492;2023-03-08T02:38:32;-0.60;99.90
74934;DHT22;63499;53.232;7.492;2023-03-08T02:40:58;-0.70;99.90
74934;DHT22;63499;53.232;7.492;2023-03-08T02:43:25;-0.70;99.90
74934;DHT22;63499;53.232;7.492;2023-03-08T02:45:51;-0.70;99.90
74934;DHT22;63499;53.232;7.492;2023-03-08T02:48:17;-0.60;99.90
74934;DHT22;63499;53.232;7.492;2023-03-08T02:50:45;-0.60;99.90
74934;DHT22;63499;53.232;7.492;2023-03-08T02:53:11;-0.70;99.90
74934;DHT22;63499;53.232;7.492;2023-03-08T02:55:37;-0.70;99.90
74934;DHT22;63499;53.232;7.492;2023-03-08T02:58:09;-0.70;99.90
74934;DHT22;63499;53.232;7.492;2023-03-08T03:00:36;-0.70;99.90
74934;DHT22;63499;53.232;7.492;2023-03-08T03:03:02;-0.70;99.90
74934;DHT22;63499;53.232;7.492;2023-03-08T03:05:29;-0.60;99.90
74934;DHT22;63499;53.232;7.492;2023-03-08T03:07:57;-0.60;99.90
74934;DHT22;63499;53.232;7.492;2023-03-08T03:10:25;-0.60;99.90
74934;DHT22;63499;53.232;7.492;2023-03-08T03:12:52;-0.60;99.90
74934;DHT22;63499;53.232;7.492;2023-03-08T03:15:22;-0.60;99.90
74934;DHT22;63499;53.232;7.492;2023-03-08T03:17:52;-0.60;99.90
74934;DHT22;63499;53.232;7.492;2023-03-08T03:20:18;-0.50;99.90
74934;DHT22;63499;53.232;7.492;2023-03-08T03:22:44;-0.50;99.90
74934;DHT22;63499;53.232;7.492;2023-03-08T03:25:13;-0.50;99.90
74934;DHT22;63499;53.232;7.492;2023-03-08T03:27:40;-0.50;99.90
74934;DHT22;63499;53.232;7.492;2023-03-08T03:30:07;-0.50;99.90
74934;DHT22;63499;53.232;7.492;2023-03-08T03:32:34;-0.50;99.90
74934;DHT22;63499;53.232;7.492;2023-03-08T03:35:00;-0.50;99.90
74934;DHT22;63499;53.232;7.492;2023-03-08T03:37:28;-0.50;99.90
74934;DHT22;63499;53.232;7.492;2023-03-08T03:39:54;-0.50;99.90
74934;DHT22;63499;53.232;7.492;2023-03-08T03:42:21;-0.60;99.90
74934;DHT22;63499;53.232;7.492;2023-03-08T03:44:57;-0.60;99.90
74934;DHT22;63499;53.232;7.492;2023-03-08T03:47:27;-0.60;99.90
74934;DHT22;63499;53.232;7.492;2023-03-08T03:49:57;-0.60;99.90
74934;DHT22;63499;53.232;7.492;2023-03-08T03:52:24;-0.70;99.90
74934;DHT22;63499;53.232;7.492;2023-03-08T03:54:57;-0.70;99.90
74934;DHT22;63499;53.232;7.492;2023-03-08T03:57:24;-0.80;99.90
74934;DHT22;63499;53.232;7.492;2023-03-08T03:59:50;-0.80;99.90
74934;DHT22;63499;53.232;7.492;2023-03-08T04:02:17;-0.80;99.90
74934;DHT22;63499;53.232;7.492;2023-03-08T04:04:51;-0.80;99.90
74934;DHT22;63499;53.232;7.492;2023-03-08T04:07:22;-0.90;99.90
74934;DHT22;63499;53.232;7.492;2023-03-08T04:09:56;-0.90;99.90
74934;DHT22;63499;53.232;7.492;2023-03-08T04:12:22;-1.00;99.90
74934;DHT22;63499;53.232;7.492;2023-03-08T04:14:49;-1.00;99.90
74934;DHT22;63499;53.232;7.492;2023-03-08T04:17:16;-1.00;99.90
74934;DHT22;63499;53.232;7.492;2023-03-08T04:19:49;-1.00;99.90
74934;DHT22;63499;53.232;7.492;2023-03-08T04:22:16;-1.00;99.90
74934;DHT22;63499;53.232;7.492;2023-03-08T04:25:15;-1.00;99.90
74934;DHT22;63499;53.232;7.492;2023-03-08T04:27:47;-1.10;99.90
74934;DHT22;63499;53.232;7.492;2023-03-08T04:30:14;-1.10;99.90
74934;DHT22;63499;53.232;7.492;2023-03-08T04:32:40;-1.10;99.90
74934;DHT22;63499;53.232;7.492;2023-03-08T04:35:06;-1.10;99.90
74934;DHT22;63499;53.232;7.492;2023-03-08T04:37:35;-1.20;99.90
74934;DHT22;63499;53.232;7.492;2023-03-08T04:40:07;-1.20;99.90
74934;DHT22;63499;53.232;7.492;2023-03-08T04:42:38;-1.10;99.90
74934;DHT22;63499;53.232;7.492;2023-03-08T04:45:08;-1.10;99.90
74934;DHT22;63499;53.232;7.492;2023-03-08T04:47:34;-1.10;99.90
74934;DHT22;63499;53.232;7.492;2023-03-08T04:50:00;-1.10;99.90
74934;DHT22;63499;53.232;7.492;2023-03-08T04:52:28;-1.10;99.90
74934;DHT22;63499;53.232;7.492;2023-03-08T04:54:54;-1.20;99.90
74934;DHT22;63499;53.232;7.492;2023-03-08T04:57:23;-1.20;99.90
74934;DHT22;63499;53.232;7.492;2023-03-08T04:59:53;-1.20;99.90
74934;DHT22;63499;53.232;7.492;2023-03-08T05:02:20;-1.20;99.90
74934;DHT22;63499;53.232;7.492;2023-03-08T05:04:47;-1.20;99.90
74934;DHT22;63499;53.232;7.492;2023-03-08T05:07:14;-1.20;99.90
74934;DHT22;63499;53.232;7.492;2023-03-08T05:09:40;-1.10;99.90
74934;DHT22;63499;53.232;7.492;2023-03-08T05:12:07;-1.10;99.90
74934;DHT22;63499;53.232;7.492;2023-03-08T05:14:49;-1.20;99.90
74934;DHT22;63499;53.232;7.492;2023-03-08T05:17:15;-1.10;99.90
74934;DHT22;63499;53.232;7.492;2023-03-08T05:19:43;-1.20;99.90
74934;DHT22;63499;53.232;7.492;2023-03-08T05:22:11;-1.10;99.90
74934;DHT22;63499;53.232;7.492;2023-03-08T05:24:43;-1.10;99.90
74934;DHT22;63499;53.232;7.492;2023-03-08T05:27:12;-1.10;99.90
74934;DHT22;63499;53.232;7.492;2023-03-08T05:29:41;-1.10;99.90
74934;DHT22;63499;53.232;7.492;2023-03-08T05:32:11;-1.10;99.90
74934;DHT22;63499;53.232;7.492;2023-03-08T05:34:38;-1.10;99.90
74934;DHT22;63499;53.232;7.492;2023-03-08T05:37:07;-1.00;99.90
74934;DHT22;63499;53.232;7.492;2023-03-08T05:39:36;-1.00;99.90
74934;DHT22;63499;53.232;7.492;2023-03-08T05:42:10;-1.10;99.90
74934;DHT22;63499;53.232;7.492;2023-03-08T05:44:40;-1.10;99.90
74934;DHT22;63499;53.232;7.492;2023-03-08T05:47:08;-1.10;99.90
74934;DHT22;63499;53.232;7.492;2023-03-08T05:49:36;-1.20;99.90
74934;DHT22;63499;53.232;7.492;2023-03-08T05:52:04;-1.20;99.90
74934;DHT22;63499;53.232;7.492;2023-03-08T05:54:30;-1.20;99.90
74934;DHT22;63499;53.232;7.492;2023-03-08T05:57:01;-1.20;99.90
74934;DHT22;63499;53.232;7.492;2023-03-08T05:59:28;-1.20;99.90
74934;DHT22;63499;53.232;7.492;2023-03-08T06:01:59;-1.10;99.90
74934;DHT22;63499;53.232;7.492;2023-03-08T06:04:47;-1.10;99.90
74934;DHT22;63499;53.232;7.492;2023-03-08T06:07:16;-1.10;99.90
74934;DHT22;63499;53.232;7.492;2023-03-08T06:09:48;-1.10;99.90
74934;DHT22;63499;53.232;7.492;2023-03-08T06:12:17;-1.10;99.90
74934;DHT22;63499;53.232;7.492;2023-03-08T06:14:46;-1.10;99.90
74934;DHT22;63499;53.232;7.492;2023-03-08T06:17:14;-1.10;99.90
74934;DHT22;63499;53.232;7.492;2023-03-08T06:19:45;-1.00;99.90
74934;DHT22;63499;53.232;7.492;2023-03-08T06:22:14;-1.00;99.90
74934;DHT22;63499;53.232;7.492;2023-03-08T06:24:42;-1.00;99.90
74934;DHT22;63499;53.232;7.492;2023-03-08T06:27:18;-0.90;99.90
74934;DHT22;63499;53.232;7.492;2023-03-08T06:29:46;-0.90;99.90
74934;DHT22;63499;53.232;7.492;2023-03-08T06:32:14;-0.80;99.90
74934;DHT22;63499;53.232;7.492;2023-03-08T06:34:40;-0.80;99.90
74934;DHT22;63499;53.232;7.492;2023-03-08T06:37:06;-0.80;99.90
74934;DHT22;63499;53.232;7.492;2023-03-08T06:39:33;-0.70;99.90
74934;DHT22;63499;53.232;7.492;2023-03-08T06:42:00;-0.70;99.90
74934;DHT22;63499;53.232;7.492;2023-03-08T06:44:29;-0.70;99.90
74934;DHT22;63499;53.232;7.492;2023-03-08T06:46:56;-0.60;99.90
74934;DHT22;63499;53.232;7.492;2023-03-08T06:49:23;-0.60;99.90
74934;DHT22;63499;53.232;7.492;2023-03-08T06:51:49;-0.60;99.90
74934;DHT22;63499;53.232;7.492;2023-03-08T06:54:16;-0.50;99.90
74934;DHT22;63499;53.232;7.492;2023-03-08T06:56:45;-0.50;99.90
74934;DHT22;63499;53.232;7.492;2023-03-08T06:59:12;-0.40;99.90
74934;DHT22;63499;53.232;7.492;2023-03-08T07:01:39;-0.30;99.90
74934;DHT22;63499;53.232;7.492;2023-03-08T07:04:05;-0.30;99.90
74934;DHT22;63499;53.232;7.492;2023-03-08T07:06:31;-0.30;99.90
74934;DHT22;63499;53.232;7.492;2023-03-08T07:08:58;-0.40;99.90
74934;DHT22;63499;53.232;7.492;2023-03-08T07:11:24;-0.40;99.90
74934;DHT22;63499;53.232;7.492;2023-03-08T07:13:52;-0.40;99.90
74934;DHT22;63499;53.232;7.492;2023-03-08T07:16:21;-0.40;99.90
74934;DHT22;63499;53.232;7.492;2023-03-08T07:18:50;-0.40;99.90
74934;DHT22;63499;53.232;7.492;2023-03-08T07:21:16;-0.50;99.90
74934;DHT22;63499;53.232;7.492;2023-03-08T07:23:42;-0.40;99.90
74934;DHT22;63499;53.232;7.492;2023-03-08T07:26:09;-0.40;99.90
74934;DHT22;63499;53.232;7.492;2023-03-08T07:28:35;-0.30;99.90
74934;DHT22;63499;53.232;7.492;2023-03-08T07:31:02;-0.30;99.90
74934;DHT22;63499;53.232;7.492;2023-03-08T07:33:28;-0.20;99.90
74934;DHT22;63499;53.232;7.492;2023-03-08T07:35:54;-0.10;99.90
74934;DHT22;63499;53.232;7.492;2023-03-08T07:38:20;-0.20;99.90
74934;DHT22;63499;53.232;7.492;2023-03-08T07:40:52;-0.10;99.90
74934;DHT22;63499;53.232;7.492;2023-03-08T07:43:18;-0.10;99.90
74934;DHT22;63499;53.232;7.492;2023-03-08T07:45:53;-0.10;99.90
74934;DHT22;63499;53.232;7.492;2023-03-08T07:48:20;0.00;99.90
74934;DHT22;63499;53.232;7.492;2023-03-08T07:50:45;0.00;99.90
74934;DHT22;63499;53.232;7.492;2023-03-08T07:53:12;0.00;99.90
74934;DHT22;63499;53.232;7.492;2023-03-08T07:55:38;0.00;99.90
74934;DHT22;63499;53.232;7.492;2023-03-08T07:58:04;0.10;99.90
74934;DHT22;63499;53.232;7.492;2023-03-08T08:00:30;0.20;99.90
74934;DHT22;63499;53.232;7.492;2023-03-08T08:02:57;0.20;99.90
74934;DHT22;63499;53.232;7.492;2023-03-08T08:05:23;0.30;99.90
74934;DHT22;63499;53.232;7.492;2023-03-08T08:07:50;0.30;99.90
74934;DHT22;63499;53.232;7.492;2023-03-08T08:10:16;0.40;99.90
74934;DHT22;63499;53.232;7.492;2023-03-08T08:12:42;0.50;99.90
74934;DHT22;63499;53.232;7.492;2023-03-08T08:15:08;0.50;99.90
74934;DHT22;63499;53.232;7.492;2023-03-08T08:17:34;0.50;99.90
74934;DHT22;63499;53.232;7.492;2023-03-08T08:20:00;0.60;99.90
74934;DHT22;63499;53.232;7.492;2023-03-08T08:22:26;0.70;99.90
74934;DHT22;63499;53.232;7.492;2023-03-08T08:24:53;0.80;99.90
74934;DHT22;63499;53.232;7.492;2023-03-08T08:27:19;0.80;99.90
74934;DHT22;63499;53.232;7.492;2023-03-08T08:29:45;0.90;99.90
74934;DHT22;63499;53.232;7.492;2023-03-08T08:32:14;0.90;99.90
74934;DHT22;63499;53.232;7.492;2023-03-08T08:34:40;0.90;99.90
74934;DHT22;63499;53.232;7.492;2023-03-08T08:37:06;0.90;99.90
74934;DHT22;63499;53.232;7.492;2023-03-08T08:39:32;0.90;99.90
74934;DHT22;63499;53.232;7.492;2023-03-08T08:41:58;0.90;99.90
74934;DHT22;63499;53.232;7.492;2023-03-08T08:44:24;0.90;99.90
74934;DHT22;63499;53.232;7.492;2023-03-08T08:46:50;0.90;99.90
74934;DHT22;63499;53.232;7.492;2023-03-08T08:49:16;0.90;99.90
74934;DHT22;63499;53.232;7.492;2023-03-08T08:51:42;1.00;99.90
74934;DHT22;63499;53.232;7.492;2023-03-08T08:54:08;1.10;99.90
74934;DHT22;63499;53.232;7.492;2023-03-08T08:56:34;1.10;99.90
74934;DHT22;63499;53.232;7.492;2023-03-08T08:59:08;1.00;99.90
74934;DHT22;63499;53.232;7.492;2023-03-08T09:01:34;1.10;99.90
74934;DHT22;63499;53.232;7.492;2023-03-08T09:04:01;1.20;99.90
74934;DHT22;63499;53.232;7.492;2023-03-08T09:06:30;1.30;99.90
74934;DHT22;63499;53.232;7.492;2023-03-08T09:08:57;1.40;99.90
74934;DHT22;63499;53.232;7.492;2023-03-08T09:11:24;1.60;99.90
74934;DHT22;63499;53.232;7.492;2023-03-08T09:13:50;1.70;99.90
74934;DHT22;63499;53.232;7.492;2023-03-08T09:16:26;1.70;99.90
74934;DHT22;63499;53.232;7.492;2023-03-08T09:18:53;1.80;99.90
74934;DHT22;63499;53.232;7.492;2023-03-08T09:21:21;2.00;99.90
74934;DHT22;63499;53.232;7.492;2023-03-08T09:23:47;2.00;99.90
74934;DHT22;63499;53.232;7.492;2023-03-08T09:26:14;2.10;99.90
74934;DHT22;63499;53.232;7.492;2023-03-08T09:28:42;2.20;99.90
74934;DHT22;63499;53.232;7.492;2023-03-08T09:31:13;2.30;99.90
74934;DHT22;63499;53.232;7.492;2023-03-08T09:33:46;2.30;99.90
74934;DHT22;63499;53.232;7.492;2023-03-08T09:36:13;2.40;99.90
74934;DHT22;63499;53.232;7.492;2023-03-08T09:38:39;2.50;99.90
74934;DHT22;63499;53.232;7.492;2023-03-08T09:43:42;2.60;99.90
74934;DHT22;63499;53.232;7.492;2023-03-08T09:46:14;2.60;99.90
74934;DHT22;63499;53.232;7.492;2023-03-08T09:48:43;2.70;99.90
74934;DHT22;63499;53.232;7.492;2023-03-08T09:51:12;2.70;99.90
74934;DHT22;63499;53.232;7.492;2023-03-08T09:58:40;2.60;99.90
74934;DHT22;63499;53.232;7.492;2023-03-08T10:01:26;2.60;99.90
74934;DHT22;63499;53.232;7.492;2023-03-08T10:04:00;2.60;99.90
74934;DHT22;63499;53.232;7.492;2023-03-08T10:11:39;2.70;99.90
74934;DHT22;63499;53.232;7.492;2023-03-08T10:14:20;2.90;99.90
74934;DHT22;63499;53.232;7.492;2023-03-08T10:16:49;2.90;99.90
74934;DHT22;63499;53.232;7.492;2023-03-08T10:22:20;2.90;99.90
74934;DHT22;63499;53.232;7.492;2023-03-08T10:25:00;3.10;99.90
74934;DHT22;63499;53.232;7.492;2023-03-08T10:27:27;3.20;99.90
74934;DHT22;63499;53.232;7.492;2023-03-08T10:29:57;3.20;99.90
74934;DHT22;63499;53.232;7.492;2023-03-08T10:32:24;3.40;99.90
74934;DHT22;63499;53.232;7.492;2023-03-08T10:34:51;3.50;99.90
74934;DHT22;63499;53.232;7.492;2023-03-08T10:37:20;3.50;99.90
74934;DHT22;63499;53.232;7.492;2023-03-08T10:39:52;3.40;99.90
74934;DHT22;63499;53.232;7.492;2023-03-08T10:42:20;3.40;99.90
74934;DHT22;63499;53.232;7.492;2023-03-08T10:45:01;3.50;99.90
74934;DHT22;63499;53.232;7.492;2023-03-08T10:52:33;3.90;99.90
74934;DHT22;63499;53.232;7.492;2023-03-08T10:55:04;3.80;99.90
74934;DHT22;63499;53.232;7.492;2023-03-08T10:57:31;3.90;99.90
74934;DHT22;63499;53.232;7.492;2023-03-08T11:00:06;4.20;99.90
74934;DHT22;63499;53.232;7.492;2023-03-08T11:02:42;4.30;99.90
74934;DHT22;63499;53.232;7.492;2023-03-08T11:05:17;4.60;99.90
74934;DHT22;63499;53.232;7.492;2023-03-08T11:07:51;4.60;99.90
74934;DHT22;63499;53.232;7.492;2023-03-08T11:10:19;4.70;99.90
74934;DHT22;63499;53.232;7.492;2023-03-08T11:12:45;4.80;99.90
74934;DHT22;63499;53.232;7.492;2023-03-08T11:15:15;4.90;99.90
74934;DHT22;63499;53.232;7.492;2023-03-08T11:18:05;5.00;99.90
74934;DHT22;63499;53.232;7.492;2023-03-08T11:20:33;5.00;99.90
74934;DHT22;63499;53.232;7.492;2023-03-08T11:30:56;5.30;99.90
74934;DHT22;63499;53.232;7.492;2023-03-08T11:43:22;5.60;99.90
74934;DHT22;63499;53.232;7.492;2023-03-08T11:48:26;5.70;99.90
74934;DHT22;63499;53.232;7.492;2023-03-08T11:58:30;5.90;99.90
74934;DHT22;63499;53.232;7.492;2023-03-08T12:00:59;6.00;99.90
74934;DHT22;63499;53.232;7.492;2023-03-08T12:03:30;5.90;99.90
74934;DHT22;63499;53.232;7.492;2023-03-08T12:05:59;6.00;99.90
74934;DHT22;63499;53.232;7.492;2023-03-08T12:08:28;5.90;99.90
74934;DHT22;63499;53.232;7.492;2023-03-08T12:10:58;5.90;99.90
74934;DHT22;63499;53.232;7.492;2023-03-08T12:19:20;5.70;99.90
74934;DHT22;63499;53.232;7.492;2023-03-08T12:21:44;5.70;99.90
74934;DHT22;63499;53.232;7.492;2023-03-08T12:29:43;5.90;99.90
74934;DHT22;63499;53.232;7.492;2023-03-08T12:32:11;5.90;99.90
74934;DHT22;63499;53.232;7.492;2023-03-08T12:34:38;6.00;99.90
74934;DHT22;63499;53.232;7.492;2023-03-08T12:37:17;6.00;99.90
74934;DHT22;63499;53.232;7.492;2023-03-08T12:39:53;6.00;99.90
74934;DHT22;63499;53.232;7.492;2023-03-08T12:42:31;5.80;99.90
74934;DHT22;63499;53.232;7.492;2023-03-08T12:47:52;5.90;99.90
74934;DHT22;63499;53.232;7.492;2023-03-08T12:50:19;6.00;99.90
74934;DHT22;63499;53.232;7.492;2023-03-08T12:52:47;6.00;99.90
74934;DHT22;63499;53.232;7.492;2023-03-08T12:55:20;6.10;99.90
74934;DHT22;63499;53.232;7.492;2023-03-08T13:02:45;6.10;99.90
74934;DHT22;63499;53.232;7.492;2023-03-08T13:05:19;6.10;99.90
74934;DHT22;63499;53.232;7.492;2023-03-08T13:11:09;6.30;99.90
74934;DHT22;63499;53.232;7.492;2023-03-08T13:15:37;6.20;99.90
74934;DHT22;63499;53.232;7.492;2023-03-08T13:28:21;6.00;99.90
74934;DHT22;63499;53.232;7.492;2023-03-08T13:30:49;6.00;99.90
74934;DHT22;63499;53.232;7.492;2023-03-08T13:33:24;5.90;99.90
74934;DHT22;63499;53.232;7.492;2023-03-08T13:38:21;5.80;99.90
74934;DHT22;63499;53.232;7.492;2023-03-08T13:40:51;5.70;99.90
74934;DHT22;63499;53.232;7.492;2023-03-08T13:43:19;5.80;99.90
74934;DHT22;63499;53.232;7.492;2023-03-08T13:45:46;5.70;99.90
74934;DHT22;63499;53.232;7.492;2023-03-08T13:48:13;5.70;99.90
74934;DHT22;63499;53.232;7.492;2023-03-08T13:50:44;5.70;99.90
74934;DHT22;63499;53.232;7.492;2023-03-08T13:53:16;5.80;99.90
74934;DHT22;63499;53.232;7.492;2023-03-08T13:55:45;5.90;99.90
74934;DHT22;63499;53.232;7.492;2023-03-08T13:58:26;5.80;99.90
74934;DHT22;63499;53.232;7.492;2023-03-08T14:00:56;5.80;99.90
74934;DHT22;63499;53.232;7.492;2023-03-08T14:03:23;5.80;99.90
74934;DHT22;63499;53.232;7.492;2023-03-08T14:05:49;5.90;99.90
74934;DHT22;63499;53.232;7.492;2023-03-08T14:08:19;5.90;99.90
74934;DHT22;63499;53.232;7.492;2023-03-08T14:10:48;5.90;99.90
74934;DHT22;63499;53.232;7.492;2023-03-08T14:13:16;5.80;99.90
74934;DHT22;63499;53.232;7.492;2023-03-08T14:15:48;5.60;99.90
74934;DHT22;63499;53.232;7.492;2023-03-08T14:18:20;5.60;99.90
74934;DHT22;63499;53.232;7.492;2023-03-08T14:23:29;5.50;99.90
74934;DHT22;63499;53.232;7.492;2023-03-08T14:25:56;5.50;99.90
74934;DHT22;63499;53.232;7.492;2023-03-08T14:28:39;5.50;99.90
74934;DHT22;63499;53.232;7.492;2023-03-08T14:31:27;5.40;99.90
74934;DHT22;63499;53.232;7.492;2023-03-08T14:34:03;5.40;99.90
74934;DHT22;63499;53.232;7.492;2023-03-08T14:36:29;5.40;99.90
74934;DHT22;63499;53.232;7.492;2023-03-08T14:38:56;5.30;99.90
74934;DHT22;63499;53.232;7.492;2023-03-08T14:41:28;5.30;99.90
74934;DHT22;63499;53.232;7.492;2023-03-08T14:43:55;5.20;99.90
74934;DHT22;63499;53.232;7.492;2023-03-08T14:46:21;5.30;99.90
74934;DHT22;63499;53.232;7.492;2023-03-08T14:48:55;5.30;99.90
74934;DHT22;63499;53.232;7.492;2023-03-08T14:51:26;5.30;99.90
74934;DHT22;63499;53.232;7.492;2023-03-08T14:56:22;5.10;99.90
74934;DHT22;63499;53.232;7.492;2023-03-08T14:58:48;5.20;99.90
74934;DHT22;63499;53.232;7.492;2023-03-08T15:01:25;5.20;99.90
74934;DHT22;63499;53.232;7.492;2023-03-08T15:03:53;5.10;99.90
74934;DHT22;63499;53.232;7.492;2023-03-08T15:06:23;5.20;99.90
74934;DHT22;63499;53.232;7.492;2023-03-08T15:08:50;5.20;99.90
74934;DHT22;63499;53.232;7.492;2023-03-08T15:11:17;5.20;99.90
74934;DHT22;63499;53.232;7.492;2023-03-08T15:13:43;5.10;99.90
74934;DHT22;63499;53.232;7.492;2023-03-08T15:16:11;5.10;99.90
74934;DHT22;63499;53.232;7.492;2023-03-08T15:18:37;5.10;99.90
74934;DHT22;63499;53.232;7.492;2023-03-08T15:21:03;5.10;99.90
74934;DHT22;63499;53.232;7.492;2023-03-08T15:23:30;5.10;99.90
74934;DHT22;63499;53.232;7.492;2023-03-08T15:25:57;5.20;99.90
74934;DHT22;63499;53.232;7.492;2023-03-08T15:28:26;5.00;99.90
74934;DHT22;63499;53.232;7.492;2023-03-08T15:30:53;5.00;99.90
74934;DHT22;63499;53.232;7.492;2023-03-08T15:33:21;5.00;99.90
74934;DHT22;63499;53.232;7.492;2023-03-08T15:35:48;4.90;99.90
74934;DHT22;63499;53.232;7.492;2023-03-08T15:38:15;4.90;99.90
74934;DHT22;63499;53.232;7.492;2023-03-08T15:40:42;4.90;99.90
74934;DHT22;63499;53.232;7.492;2023-03-08T15:43:08;4.80;99.90
74934;DHT22;63499;53.232;7.492;2023-03-08T15:45:35;4.90;99.90
74934;DHT22;63499;53.232;7.492;2023-03-08T15:48:02;4.90;99.90
74934;DHT22;63499;53.232;7.492;2023-03-08T15:50:29;4.80;99.90
74934;DHT22;63499;53.232;7.492;2023-03-08T15:52:56;4.80;99.90
74934;DHT22;63499;53.232;7.492;2023-03-08T15:55:23;4.80;99.90
74934;DHT22;63499;53.232;7.492;2023-03-08T15:57:49;4.70;99.90
74934;DHT22;63499;53.232;7.492;2023-03-08T16:00:18;4.70;99.90
74934;DHT22;63499;53.232;7.492;2023-03-08T16:02:44;4.60;99.90
74934;DHT22;63499;53.232;7.492;2023-03-08T16:05:14;4.60;99.90
74934;DHT22;63499;53.232;7.492;2023-03-08T16:07:41;4.50;99.90
74934;DHT22;63499;53.232;7.492;2023-03-08T16:10:10;4.50;99.90
74934;DHT22;63499;53.232;7.492;2023-03-08T16:12:39;4.60;99.90
74934;DHT22;63499;53.232;7.492;2023-03-08T16:15:06;4.50;99.90
74934;DHT22;63499;53.232;7.492;2023-03-08T16:17:33;4.50;99.90
74934;DHT22;63499;53.232;7.492;2023-03-08T16:19:59;4.40;99.90
74934;DHT22;63499;53.232;7.492;2023-03-08T16:22:25;4.40;99.90
74934;DHT22;63499;53.232;7.492;2023-03-08T16:24:54;4.40;99.90
74934;DHT22;63499;53.232;7.492;2023-03-08T16:27:20;4.30;99.90
74934;DHT22;63499;53.232;7.492;2023-03-08T16:29:50;4.30;99.90
74934;DHT22;63499;53.232;7.492;2023-03-08T16:32:17;4.30;99.90
74934;DHT22;63499;53.232;7.492;2023-03-08T16:34:44;4.30;99.90
74934;DHT22;63499;53.232;7.492;2023-03-08T16:37:20;4.30;99.90
74934;DHT22;63499;53.232;7.492;2023-03-08T16:39:48;4.30;99.90
74934;DHT22;63499;53.232;7.492;2023-03-08T16:42:14;4.30;99.90
74934;DHT22;63499;53.232;7.492;2023-03-08T16:44:40;4.20;99.90
74934;DHT22;63499;53.232;7.492;2023-03-08T16:47:13;4.20;99.90
74934;DHT22;63499;53.232;7.492;2023-03-08T16:49:39;4.20;99.90
74934;DHT22;63499;53.232;7.492;2023-03-08T16:52:05;4.20;99.90
74934;DHT22;63499;53.232;7.492;2023-03-08T16:54:32;4.10;99.90
74934;DHT22;63499;53.232;7.492;2023-03-08T16:57:01;4.10;99.90
74934;DHT22;63499;53.232;7.492;2023-03-08T16:59:29;4.10;99.90
74934;DHT22;63499;53.232;7.492;2023-03-08T17:01:56;4.10;99.90
74934;DHT22;63499;53.232;7.492;2023-03-08T17:04:22;4.00;99.90
74934;DHT22;63499;53.232;7.492;2023-03-08T17:06:48;4.00;99.90
74934;DHT22;63499;53.232;7.492;2023-03-08T17:09:14;3.90;99.90
74934;DHT22;63499;53.232;7.492;2023-03-08T17:11:41;3.90;99.90
74934;DHT22;63499;53.232;7.492;2023-03-08T17:14:11;3.90;99.90
74934;DHT22;63499;53.232;7.492;2023-03-08T17:16:37;3.80;99.90
74934;DHT22;63499;53.232;7.492;2023-03-08T17:19:05;3.80;99.90
74934;DHT22;63499;53.232;7.492;2023-03-08T17:21:31;3.80;99.90